sensor_id;sensor_type;location;lat;lon;timestamp;temperature;humidity
76305;DHT22;65111;50.536;19.204;2023-03-23T00:01:13;8.80;82.90
76305;DHT22;65111;50.536;19.204;2023-03-23T00:03:46;8.90;83.00
76305;DHT22;65111;50.536;19.204;2023-03-23T00:06:13;8.90;83.00
76305;DHT22;65111;50.536;19.204;2023-03-23T00:08:44;8.90;83.10
76305;DHT22;65111;50.536;19.204;2023-03-23T00:11:21;8.80;83.20
76305;DHT22;65111;50.536;19.204;2023-03-23T00:13:50;9.00;83.30
76305;DHT22;65111;50.536;19.204;2023-03-23T00:16:21;9.00;83.30
76305;DHT22;65111;50.536;19.204;2023-03-23T00:20:31;9.10;83.30
76305;DHT22;65111;50.536;19.204;2023-03-23T00:23:06;9.20;83.00
76305;DHT22;65111;50.536;19.204;2023-03-23T00:25:33;9.10;82.80
76305;DHT22;65111;50.536;19.204;2023-03-23T00:27:58;9.10;82.80
76305;DHT22;65111;50.536;19.204;2023-03-23T00:30:26;9.00;82.80
76305;DHT22;65111;50.536;19.204;2023-03-23T00:32:52;9.10;82.90
76305;DHT22;65111;50.536;19.204;2023-03-23T00:35:18;9.10;83.00
76305;DHT22;65111;50.536;19.204;2023-03-23T00:37:45;9.10;82.90
76305;DHT22;65111;50.536;19.204;2023-03-23T00:40:11;9.10;82.90
76305;DHT22;65111;50.536;19.204;2023-03-23T00:42:37;9.10;82.90
76305;DHT22;65111;50.536;19.204;2023-03-23T00:45:04;9.00;83.00
76305;DHT22;65111;50.536;19.204;2023-03-23T00:47:38;9.10;82.80
76305;DHT22;65111;50.536;19.204;2023-03-23T00:50:07;9.20;82.70
76305;DHT22;65111;50.536;19.204;2023-03-23T00:52:33;9.20;82.70
76305;DHT22;65111;50.536;19.204;2023-03-23T00:54:59;9.20;82.70
76305;DHT22;65111;50.536;19.204;2023-03-23T00:57:25;9.30;82.60
76305;DHT22;65111;50.536;19.204;2023-03-23T00:59:51;9.10;82.50
76305;DHT22;65111;50.536;19.204;2023-03-23T01:02:17;9.10;82.50
76305;DHT22;65111;50.536;19.204;2023-03-23T01:04:43;9.10;82.70
76305;DHT22;65111;50.536;19.204;2023-03-23T01:07:11;9.00;82.90
76305;DHT22;65111;50.536;19.204;2023-03-23T01:09:40;9.10;82.90
76305;DHT22;65111;50.536;19.204;2023-03-23T01:12:11;9.00;82.90
76305;DHT22;65111;50.536;19.204;2023-03-23T01:14:37;9.10;83.00
76305;DHT22;65111;50.536;19.204;2023-03-23T01:17:03;9.00;83.10
76305;DHT22;65111;50.536;19.204;2023-03-23T01:19:29;9.00;83.10
76305;DHT22;65111;50.536;19.204;2023-03-23T01:21:55;9.10;83.10
76305;DHT22;65111;50.536;19.204;2023-03-23T01:24:21;9.10;83.10
76305;DHT22;65111;50.536;19.204;2023-03-23T01:26:47;9.10;82.90
76305;DHT22;65111;50.536;19.204;2023-03-23T01:29:13;9.20;82.90
76305;DHT22;65111;50.536;19.204;2023-03-23T01:31:39;9.10;82.80
76305;DHT22;65111;50.536;19.204;2023-03-23T01:34:05;9.20;82.80
76305;DHT22;65111;50.536;19.204;2023-03-23T01:36:31;9.20;82.90
76305;DHT22;65111;50.536;19.204;2023-03-23T01:38:59;9.20;82.70
76305;DHT22;65111;50.536;19.204;2023-03-23T01:41:27;9.20;82.50
76305;DHT22;65111;50.536;19.204;2023-03-23T01:46:34;9.10;82.60
76305;DHT22;65111;50.536;19.204;2023-03-23T01:49:21;9.10;82.60
76305;DHT22;65111;50.536;19.204;2023-03-23T01:52:00;9.10;82.80
76305;DHT22;65111;50.536;19.204;2023-03-23T01:54:28;9.00;82.90
76305;DHT22;65111;50.536;19.204;2023-03-23T01:57:00;9.10;82.80
76305;DHT22;65111;50.536;19.204;2023-03-23T01:59:29;9.00;82.70
76305;DHT22;65111;50.536;19.204;2023-03-23T02:01:56;9.00;82.90
76305;DHT22;65111;50.536;19.204;2023-03-23T02:04:23;9.10;82.90
76305;DHT22;65111;50.536;19.204;2023-03-23T02:06:54;9.00;82.70
76305;DHT22;65111;50.536;19.204;2023-03-23T02:09:22;9.00;83.00
76305;DHT22;65111;50.536;19.204;2023-03-23T02:11:48;9.00;82.80
76305;DHT22;65111;50.536;19.204;2023-03-23T02:14:15;8.90;82.70
76305;DHT22;65111;50.536;19.204;2023-03-23T02:23:05;8.80;82.90
76305;DHT22;65111;50.536;19.204;2023-03-23T02:34:21;8.70;83.40
76305;DHT22;65111;50.536;19.204;2023-03-23T02:37:01;8.50;83.50
76305;DHT22;65111;50.536;19.204;2023-03-23T02:39:47;8.40;83.50
76305;DHT22;65111;50.536;19.204;2023-03-23T02:42:19;8.40;83.60
76305;DHT22;65111;50.536;19.204;2023-03-23T02:44:47;8.30;83.70
76305;DHT22;65111;50.536;19.204;2023-03-23T02:47:25;8.20;84.20
76305;DHT22;65111;50.536;19.204;2023-03-23T02:49:54;8.20;84.70
76305;DHT22;65111;50.536;19.204;2023-03-23T02:52:25;8.30;84.80
76305;DHT22;65111;50.536;19.204;2023-03-23T02:54:54;8.30;84.60
76305;DHT22;65111;50.536;19.204;2023-03-23T02:57:23;8.40;84.60
76305;DHT22;65111;50.536;19.204;2023-03-23T02:59:50;8.50;84.70
76305;DHT22;65111;50.536;19.204;2023-03-23T03:02:25;8.60;84.40
76305;DHT22;65111;50.536;19.204;2023-03-23T03:05:21;8.60;84.10
76305;DHT22;65111;50.536;19.204;2023-03-23T03:10:26;8.80;83.60
76305;DHT22;65111;50.536;19.204;2023-03-23T03:15:44;8.80;83.50
76305;DHT22;65111;50.536;19.204;2023-03-23T03:18:22;8.80;83.50
76305;DHT22;65111;50.536;19.204;2023-03-23T03:20:59;8.80;83.40
76305;DHT22;65111;50.536;19.204;2023-03-23T03:23:28;8.80;83.40
76305;DHT22;65111;50.536;19.204;2023-03-23T03:25:55;8.80;83.40
76305;DHT22;65111;50.536;19.204;2023-03-23T03:28:24;8.80;83.20
76305;DHT22;65111;50.536;19.204;2023-03-23T03:30:55;8.80;83.20
76305;DHT22;65111;50.536;19.204;2023-03-23T03:33:23;8.80;83.20
76305;DHT22;65111;50.536;19.204;2023-03-23T03:35:55;8.70;83.20
76305;DHT22;65111;50.536;19.204;2023-03-23T03:38:21;8.60;83.10
76305;DHT22;65111;50.536;19.204;2023-03-23T03:40:47;8.70;83.00
76305;DHT22;65111;50.536;19.204;2023-03-23T03:43:13;8.50;83.10
76305;DHT22;65111;50.536;19.204;2023-03-23T03:45:39;8.30;83.40
76305;DHT22;65111;50.536;19.204;2023-03-23T03:48:06;8.20;83.80
76305;DHT22;65111;50.536;19.204;2023-03-23T03:50:32;8.20;83.80
76305;DHT22;65111;50.536;19.204;2023-03-23T03:52:58;8.20;84.10
76305;DHT22;65111;50.536;19.204;2023-03-23T03:55:24;8.10;84.10
76305;DHT22;65111;50.536;19.204;2023-03-23T03:57:50;8.00;84.40
76305;DHT22;65111;50.536;19.204;2023-03-23T04:00:17;8.00;84.40
76305;DHT22;65111;50.536;19.204;2023-03-23T04:02:46;8.00;84.60
76305;DHT22;65111;50.536;19.204;2023-03-23T04:05:17;7.90;84.90
76305;DHT22;65111;50.536;19.204;2023-03-23T04:07:44;7.90;84.90
76305;DHT22;65111;50.536;19.204;2023-03-23T04:10:11;7.90;85.20
76305;DHT22;65111;50.536;19.204;2023-03-23T04:12:38;8.00;85.20
76305;DHT22;65111;50.536;19.204;2023-03-23T04:15:05;8.00;85.10
76305;DHT22;65111;50.536;19.204;2023-03-23T04:17:34;8.00;85.10
76305;DHT22;65111;50.536;19.204;2023-03-23T04:20:02;8.00;85.10
76305;DHT22;65111;50.536;19.204;2023-03-23T04:22:33;7.80;85.20
76305;DHT22;65111;50.536;19.204;2023-03-23T04:25:00;7.80;85.30
76305;DHT22;65111;50.536;19.204;2023-03-23T04:27:28;7.70;85.30
76305;DHT22;65111;50.536;19.204;2023-03-23T04:29:55;7.70;85.80
76305;DHT22;65111;50.536;19.204;2023-03-23T04:32:24;7.70;85.90
76305;DHT22;65111;50.536;19.204;2023-03-23T04:34:55;7.70;86.00
76305;DHT22;65111;50.536;19.204;2023-03-23T04:37:24;7.50;86.10
76305;DHT22;65111;50.536;19.204;2023-03-23T04:39:57;7.60;86.20
76305;DHT22;65111;50.536;19.204;2023-03-23T04:42:31;7.60;86.20
76305;DHT22;65111;50.536;19.204;2023-03-23T04:44:58;7.40;86.20
76305;DHT22;65111;50.536;19.204;2023-03-23T04:47:26;7.50;86.40
76305;DHT22;65111;50.536;19.204;2023-03-23T04:49:58;7.50;86.40
76305;DHT22;65111;50.536;19.204;2023-03-23T04:52:24;7.50;86.50
76305;DHT22;65111;50.536;19.204;2023-03-23T04:54:51;7.50;86.60
76305;DHT22;65111;50.536;19.204;2023-03-23T04:57:18;7.50;86.80
76305;DHT22;65111;50.536;19.204;2023-03-23T04:59:44;7.50;87.00
76305;DHT22;65111;50.536;19.204;2023-03-23T05:02:10;7.50;86.70
76305;DHT22;65111;50.536;19.204;2023-03-23T05:04:39;7.80;86.80
76305;DHT22;65111;50.536;19.204;2023-03-23T05:07:07;7.70;86.60
76305;DHT22;65111;50.536;19.204;2023-03-23T05:09:34;7.80;86.50
76305;DHT22;65111;50.536;19.204;2023-03-23T05:12:05;7.80;86.50
76305;DHT22;65111;50.536;19.204;2023-03-23T05:14:31;7.90;86.50
76305;DHT22;65111;50.536;19.204;2023-03-23T05:16:57;7.90;86.40
76305;DHT22;65111;50.536;19.204;2023-03-23T05:19:23;8.10;86.30
76305;DHT22;65111;50.536;19.204;2023-03-23T05:21:49;8.30;86.20
76305;DHT22;65111;50.536;19.204;2023-03-23T05:24:15;8.50;85.90
76305;DHT22;65111;50.536;19.204;2023-03-23T05:26:41;8.80;85.20
76305;DHT22;65111;50.536;19.204;2023-03-23T05:29:07;9.20;84.50
76305;DHT22;65111;50.536;19.204;2023-03-23T05:31:33;9.30;83.90
76305;DHT22;65111;50.536;19.204;2023-03-23T05:33:59;9.40;83.60
76305;DHT22;65111;50.536;19.204;2023-03-23T05:36:25;9.60;83.30
76305;DHT22;65111;50.536;19.204;2023-03-23T05:38:51;9.70;82.70
76305;DHT22;65111;50.536;19.204;2023-03-23T05:41:17;9.70;82.30
76305;DHT22;65111;50.536;19.204;2023-03-23T05:43:43;9.80;82.20
76305;DHT22;65111;50.536;19.204;2023-03-23T05:46:09;9.80;81.90
76305;DHT22;65111;50.536;19.204;2023-03-23T05:48:35;9.90;81.60
76305;DHT22;65111;50.536;19.204;2023-03-23T05:51:01;9.90;81.20
76305;DHT22;65111;50.536;19.204;2023-03-23T05:53:28;9.90;81.00
76305;DHT22;65111;50.536;19.204;2023-03-23T05:56:00;10.00;80.80
76305;DHT22;65111;50.536;19.204;2023-03-23T05:58:26;10.10;80.60
76305;DHT22;65111;50.536;19.204;2023-03-23T06:00:52;10.20;80.30
76305;DHT22;65111;50.536;19.204;2023-03-23T06:03:18;10.30;80.20
76305;DHT22;65111;50.536;19.204;2023-03-23T06:05:45;10.30;80.10
76305;DHT22;65111;50.536;19.204;2023-03-23T06:08:11;10.50;79.80
76305;DHT22;65111;50.536;19.204;2023-03-23T06:10:37;10.60;79.50
76305;DHT22;65111;50.536;19.204;2023-03-23T06:13:04;10.70;79.10
76305;DHT22;65111;50.536;19.204;2023-03-23T06:15:31;10.80;78.70
76305;DHT22;65111;50.536;19.204;2023-03-23T06:17:59;10.90;78.80
76305;DHT22;65111;50.536;19.204;2023-03-23T06:20:25;10.90;78.30
76305;DHT22;65111;50.536;19.204;2023-03-23T06:22:51;11.20;78.00
76305;DHT22;65111;50.536;19.204;2023-03-23T06:25:18;11.40;77.70
76305;DHT22;65111;50.536;19.204;2023-03-23T06:27:44;11.60;77.30
76305;DHT22;65111;50.536;19.204;2023-03-23T06:30:13;11.70;76.70
76305;DHT22;65111;50.536;19.204;2023-03-23T06:32:41;11.80;76.10
76305;DHT22;65111;50.536;19.204;2023-03-23T06:35:09;12.00;75.30
76305;DHT22;65111;50.536;19.204;2023-03-23T06:37:37;12.00;74.80
76305;DHT22;65111;50.536;19.204;2023-03-23T06:40:04;12.10;74.80
76305;DHT22;65111;50.536;19.204;2023-03-23T06:42:35;12.30;74.80
76305;DHT22;65111;50.536;19.204;2023-03-23T06:45:03;12.40;74.70
76305;DHT22;65111;50.536;19.204;2023-03-23T06:47:30;12.50;74.50
76305;DHT22;65111;50.536;19.204;2023-03-23T06:49:57;12.60;73.90
76305;DHT22;65111;50.536;19.204;2023-03-23T06:52:24;12.80;72.80
76305;DHT22;65111;50.536;19.204;2023-03-23T06:54:51;12.90;71.90
76305;DHT22;65111;50.536;19.204;2023-03-23T06:57:19;13.10;71.50
76305;DHT22;65111;50.536;19.204;2023-03-23T06:59:45;13.20;71.30
76305;DHT22;65111;50.536;19.204;2023-03-23T07:02:13;13.30;70.80
76305;DHT22;65111;50.536;19.204;2023-03-23T07:04:40;13.50;70.70
76305;DHT22;65111;50.536;19.204;2023-03-23T07:07:10;13.50;70.90
76305;DHT22;65111;50.536;19.204;2023-03-23T07:09:39;13.60;70.20
76305;DHT22;65111;50.536;19.204;2023-03-23T07:12:05;13.70;69.30
76305;DHT22;65111;50.536;19.204;2023-03-23T07:14:31;13.80;69.10
76305;DHT22;65111;50.536;19.204;2023-03-23T07:16:57;13.80;68.60
76305;DHT22;65111;50.536;19.204;2023-03-23T07:19:23;13.80;68.70
76305;DHT22;65111;50.536;19.204;2023-03-23T07:21:49;13.90;68.50
76305;DHT22;65111;50.536;19.204;2023-03-23T07:24:15;13.80;68.20
76305;DHT22;65111;50.536;19.204;2023-03-23T07:26:42;13.90;68.40
76305;DHT22;65111;50.536;19.204;2023-03-23T07:29:09;14.00;67.40
76305;DHT22;65111;50.536;19.204;2023-03-23T07:31:35;14.10;67.40
76305;DHT22;65111;50.536;19.204;2023-03-23T07:34:02;14.20;67.20
76305;DHT22;65111;50.536;19.204;2023-03-23T07:36:29;14.30;66.50
76305;DHT22;65111;50.536;19.204;2023-03-23T07:38:55;14.50;66.30
76305;DHT22;65111;50.536;19.204;2023-03-23T07:41:22;14.60;65.80
76305;DHT22;65111;50.536;19.204;2023-03-23T07:43:48;14.80;65.70
76305;DHT22;65111;50.536;19.204;2023-03-23T07:46:14;15.10;65.50
76305;DHT22;65111;50.536;19.204;2023-03-23T07:48:40;15.30;64.00
76305;DHT22;65111;50.536;19.204;2023-03-23T07:51:06;15.60;62.60
76305;DHT22;65111;50.536;19.204;2023-03-23T07:53:33;15.90;60.80
76305;DHT22;65111;50.536;19.204;2023-03-23T07:55:59;16.30;60.70
76305;DHT22;65111;50.536;19.204;2023-03-23T07:58:25;16.80;59.20
76305;DHT22;65111;50.536;19.204;2023-03-23T08:00:52;17.60;58.10
76305;DHT22;65111;50.536;19.204;2023-03-23T08:03:18;19.50;55.10
76305;DHT22;65111;50.536;19.204;2023-03-23T08:05:44;21.40;49.90
76305;DHT22;65111;50.536;19.204;2023-03-23T08:08:10;22.60;46.70
76305;DHT22;65111;50.536;19.204;2023-03-23T08:10:36;23.40;44.70
76305;DHT22;65111;50.536;19.204;2023-03-23T08:13:03;23.40;43.20
76305;DHT22;65111;50.536;19.204;2023-03-23T08:15:29;23.10;43.40
76305;DHT22;65111;50.536;19.204;2023-03-23T08:17:55;23.20;43.80
76305;DHT22;65111;50.536;19.204;2023-03-23T08:20:21;23.50;43.50
76305;DHT22;65111;50.536;19.204;2023-03-23T08:22:54;24.00;42.60
76305;DHT22;65111;50.536;19.204;2023-03-23T08:25:22;24.90;41.60
76305;DHT22;65111;50.536;19.204;2023-03-23T08:27:50;26.50;39.00
76305;DHT22;65111;50.536;19.204;2023-03-23T08:30:19;28.30;37.60
76305;DHT22;65111;50.536;19.204;2023-03-23T08:32:46;30.30;36.10
76305;DHT22;65111;50.536;19.204;2023-03-23T08:35:13;32.50;34.30
76305;DHT22;65111;50.536;19.204;2023-03-23T08:37:41;34.00;33.30
76305;DHT22;65111;50.536;19.204;2023-03-23T08:40:10;34.60;32.70
76305;DHT22;65111;50.536;19.204;2023-03-23T08:42:42;34.60;31.60
76305;DHT22;65111;50.536;19.204;2023-03-23T08:45:11;33.90;32.10
76305;DHT22;65111;50.536;19.204;2023-03-23T08:47:38;34.10;31.90
76305;DHT22;65111;50.536;19.204;2023-03-23T08:50:05;34.60;31.10
76305;DHT22;65111;50.536;19.204;2023-03-23T08:52:31;34.00;31.10
76305;DHT22;65111;50.536;19.204;2023-03-23T08:54:58;32.50;32.00
76305;DHT22;65111;50.536;19.204;2023-03-23T08:57:26;30.60;32.90
76305;DHT22;65111;50.536;19.204;2023-03-23T08:59:52;29.40;34.10
76305;DHT22;65111;50.536;19.204;2023-03-23T09:02:20;28.50;34.90
76305;DHT22;65111;50.536;19.204;2023-03-23T09:04:46;27.80;35.50
76305;DHT22;65111;50.536;19.204;2023-03-23T09:07:13;27.50;36.10
76305;DHT22;65111;50.536;19.204;2023-03-23T09:09:40;27.20;35.70
76305;DHT22;65111;50.536;19.204;2023-03-23T09:12:08;26.80;36.00
76305;DHT22;65111;50.536;19.204;2023-03-23T09:14:36;26.40;36.50
76305;DHT22;65111;50.536;19.204;2023-03-23T09:17:03;26.50;36.70
76305;DHT22;65111;50.536;19.204;2023-03-23T09:19:30;26.90;36.30
76305;DHT22;65111;50.536;19.204;2023-03-23T09:21:59;27.50;35.50
76305;DHT22;65111;50.536;19.204;2023-03-23T09:24:26;27.80;35.20
76305;DHT22;65111;50.536;19.204;2023-03-23T09:26:52;27.20;35.50
76305;DHT22;65111;50.536;19.204;2023-03-23T09:29:18;26.30;36.40
76305;DHT22;65111;50.536;19.204;2023-03-23T09:31:47;26.10;37.00
76305;DHT22;65111;50.536;19.204;2023-03-23T09:34:14;27.50;35.90
76305;DHT22;65111;50.536;19.204;2023-03-23T09:36:44;29.70;34.30
76305;DHT22;65111;50.536;19.204;2023-03-23T09:39:11;32.00;32.10
76305;DHT22;65111;50.536;19.204;2023-03-23T09:44:36;34.70;30.70
76305;DHT22;65111;50.536;19.204;2023-03-23T09:49:37;37.10;28.80
76305;DHT22;65111;50.536;19.204;2023-03-23T09:52:15;37.20;28.50
76305;DHT22;65111;50.536;19.204;2023-03-23T09:54:44;36.10;28.90
76305;DHT22;65111;50.536;19.204;2023-03-23T09:57:47;35.50;29.20
76305;DHT22;65111;50.536;19.204;2023-03-23T10:00:22;35.90;29.60
76305;DHT22;65111;50.536;19.204;2023-03-23T10:05:30;38.00;28.10
76305;DHT22;65111;50.536;19.204;2023-03-23T10:07:59;38.20;27.70
76305;DHT22;65111;50.536;19.204;2023-03-23T10:13:27;38.30;27.70
76305;DHT22;65111;50.536;19.204;2023-03-23T10:15:56;38.50;27.50
76305;DHT22;65111;50.536;19.204;2023-03-23T10:21:28;39.60;27.40
76305;DHT22;65111;50.536;19.204;2023-03-23T10:24:01;40.30;27.10
76305;DHT22;65111;50.536;19.204;2023-03-23T10:26:45;40.20;26.20
76305;DHT22;65111;50.536;19.204;2023-03-23T10:31:54;36.00;27.60
76305;DHT22;65111;50.536;19.204;2023-03-23T10:34:32;33.40;29.20
76305;DHT22;65111;50.536;19.204;2023-03-23T10:39:55;29.20;31.40
76305;DHT22;65111;50.536;19.204;2023-03-23T10:42:28;27.20;32.80
76305;DHT22;65111;50.536;19.204;2023-03-23T10:44:56;25.80;34.20
76305;DHT22;65111;50.536;19.204;2023-03-23T10:47:22;24.50;35.40
76305;DHT22;65111;50.536;19.204;2023-03-23T10:49:53;23.40;36.60
76305;DHT22;65111;50.536;19.204;2023-03-23T10:55:15;21.70;38.70
76305;DHT22;65111;50.536;19.204;2023-03-23T10:57:47;21.00;39.70
76305;DHT22;65111;50.536;19.204;2023-03-23T11:00:26;20.40;40.90
76305;DHT22;65111;50.536;19.204;2023-03-23T11:03:05;20.10;41.50
76305;DHT22;65111;50.536;19.204;2023-03-23T11:05:42;19.70;42.70
76305;DHT22;65111;50.536;19.204;2023-03-23T11:08:15;19.40;43.10
76305;DHT22;65111;50.536;19.204;2023-03-23T11:13:33;19.20;44.10
76305;DHT22;65111;50.536;19.204;2023-03-23T11:16:00;19.40;43.90
76305;DHT22;65111;50.536;19.204;2023-03-23T11:18:41;19.40;43.80
76305;DHT22;65111;50.536;19.204;2023-03-23T11:21:12;19.40;44.20
76305;DHT22;65111;50.536;19.204;2023-03-23T11:23:41;19.50;44.10
76305;DHT22;65111;50.536;19.204;2023-03-23T11:26:15;19.40;44.10
76305;DHT22;65111;50.536;19.204;2023-03-23T11:29:18;19.40;44.40
76305;DHT22;65111;50.536;19.204;2023-03-23T11:31:51;19.20;44.70
76305;DHT22;65111;50.536;19.204;2023-03-23T11:34:24;19.10;45.20
76305;DHT22;65111;50.536;19.204;2023-03-23T11:37:01;19.00;45.30
76305;DHT22;65111;50.536;19.204;2023-03-23T11:39:31;19.00;45.50
76305;DHT22;65111;50.536;19.204;2023-03-23T11:42:12;19.00;45.80
76305;DHT22;65111;50.536;19.204;2023-03-23T11:44:42;19.00;45.60
76305;DHT22;65111;50.536;19.204;2023-03-23T11:47:26;19.20;45.50
76305;DHT22;65111;50.536;19.204;2023-03-23T11:49:58;19.30;45.30
76305;DHT22;65111;50.536;19.204;2023-03-23T11:55:36;19.70;44.70
76305;DHT22;65111;50.536;19.204;2023-03-23T11:58:11;19.90;44.30
76305;DHT22;65111;50.536;19.204;2023-03-23T12:00:47;20.00;44.20
76305;DHT22;65111;50.536;19.204;2023-03-23T12:03:15;20.10;44.10
76305;DHT22;65111;50.536;19.204;2023-03-23T12:06:00;20.00;44.30
76305;DHT22;65111;50.536;19.204;2023-03-23T12:11:31;19.90;44.60
76305;DHT22;65111;50.536;19.204;2023-03-23T12:14:33;19.80;44.80
76305;DHT22;65111;50.536;19.204;2023-03-23T12:17:19;19.80;44.50
76305;DHT22;65111;50.536;19.204;2023-03-23T12:36:27;23.60;39.10
76305;DHT22;65111;50.536;19.204;2023-03-23T12:39:09;23.30;39.50
76305;DHT22;65111;50.536;19.204;2023-03-23T12:44:13;22.70;40.00
76305;DHT22;65111;50.536;19.204;2023-03-23T12:49:49;22.00;41.00
76305;DHT22;65111;50.536;19.204;2023-03-23T12:52:23;21.80;41.60
76305;DHT22;65111;50.536;19.204;2023-03-23T12:54:54;21.90;41.50
76305;DHT22;65111;50.536;19.204;2023-03-23T13:00:20;21.40;42.10
76305;DHT22;65111;50.536;19.204;2023-03-23T13:08:58;20.80;43.50
76305;DHT22;65111;50.536;19.204;2023-03-23T13:11:34;20.60;44.00
76305;DHT22;65111;50.536;19.204;2023-03-23T13:14:18;20.40;44.30
76305;DHT22;65111;50.536;19.204;2023-03-23T13:22:54;20.00;45.10
76305;DHT22;65111;50.536;19.204;2023-03-23T13:25:46;19.80;45.70
76305;DHT22;65111;50.536;19.204;2023-03-23T13:31:34;19.50;46.40
76305;DHT22;65111;50.536;19.204;2023-03-23T13:38:59;20.10;46.10
76305;DHT22;65111;50.536;19.204;2023-03-23T13:41:26;20.30;45.60
76305;DHT22;65111;50.536;19.204;2023-03-23T13:44:05;20.60;44.80
76305;DHT22;65111;50.536;19.204;2023-03-23T13:46:32;20.60;44.60
76305;DHT22;65111;50.536;19.204;2023-03-23T13:49:18;20.60;44.60
76305;DHT22;65111;50.536;19.204;2023-03-23T13:56:47;20.30;45.00
76305;DHT22;65111;50.536;19.204;2023-03-23T14:02:33;20.20;44.80
76305;DHT22;65111;50.536;19.204;2023-03-23T14:08:00;19.80;45.90
76305;DHT22;65111;50.536;19.204;2023-03-23T14:13:04;19.60;46.40
76305;DHT22;65111;50.536;19.204;2023-03-23T14:15:41;19.50;46.50
76305;DHT22;65111;50.536;19.204;2023-03-23T14:18:14;19.40;46.70
76305;DHT22;65111;50.536;19.204;2023-03-23T14:20:42;19.20;47.00
76305;DHT22;65111;50.536;19.204;2023-03-23T14:23:19;19.00;47.30
76305;DHT22;65111;50.536;19.204;2023-03-23T14:26:10;18.90;47.80
76305;DHT22;65111;50.536;19.204;2023-03-23T14:28:39;18.90;48.10
76305;DHT22;65111;50.536;19.204;2023-03-23T14:31:26;19.00;48.10
76305;DHT22;65111;50.536;19.204;2023-03-23T14:33:55;19.00;48.00
76305;DHT22;65111;50.536;19.204;2023-03-23T14:36:27;19.10;47.90
76305;DHT22;65111;50.536;19.204;2023-03-23T14:39:18;19.20;47.70
76305;DHT22;65111;50.536;19.204;2023-03-23T14:41:45;19.20;47.70
76305;DHT22;65111;50.536;19.204;2023-03-23T14:44:21;19.10;47.70
76305;DHT22;65111;50.536;19.204;2023-03-23T14:46:49;19.20;48.00
76305;DHT22;65111;50.536;19.204;2023-03-23T14:49:17;19.10;47.80
76305;DHT22;65111;50.536;19.204;2023-03-23T14:51:49;19.10;48.00
76305;DHT22;65111;50.536;19.204;2023-03-23T14:54:23;19.00;48.00
76305;DHT22;65111;50.536;19.204;2023-03-23T14:56:49;19.00;48.40
76305;DHT22;65111;50.536;19.204;2023-03-23T14:59:15;19.00;48.40
76305;DHT22;65111;50.536;19.204;2023-03-23T15:01:42;18.90;48.70
76305;DHT22;65111;50.536;19.204;2023-03-23T15:04:14;18.80;49.00
76305;DHT22;65111;50.536;19.204;2023-03-23T15:06:49;18.70;49.10
76305;DHT22;65111;50.536;19.204;2023-03-23T15:09:20;18.70;49.30
76305;DHT22;65111;50.536;19.204;2023-03-23T15:11:56;18.50;49.40
76305;DHT22;65111;50.536;19.204;2023-03-23T15:14:42;18.50;49.60
76305;DHT22;65111;50.536;19.204;2023-03-23T15:17:18;18.40;49.70
76305;DHT22;65111;50.536;19.204;2023-03-23T15:19:45;18.30;50.00
76305;DHT22;65111;50.536;19.204;2023-03-23T15:24:44;18.00;50.90
76305;DHT22;65111;50.536;19.204;2023-03-23T15:27:17;17.90;50.90
76305;DHT22;65111;50.536;19.204;2023-03-23T15:29:51;17.90;51.00
76305;DHT22;65111;50.536;19.204;2023-03-23T15:32:40;17.80;51.10
76305;DHT22;65111;50.536;19.204;2023-03-23T15:35:25;17.80;51.20
76305;DHT22;65111;50.536;19.204;2023-03-23T15:37:57;17.80;51.20
76305;DHT22;65111;50.536;19.204;2023-03-23T15:40:25;17.80;51.30
76305;DHT22;65111;50.536;19.204;2023-03-23T15:48:45;17.80;51.50
76305;DHT22;65111;50.536;19.204;2023-03-23T15:51:12;17.60;51.60
76305;DHT22;65111;50.536;19.204;2023-03-23T15:53:39;17.70;51.80
76305;DHT22;65111;50.536;19.204;2023-03-23T15:56:07;17.60;51.70
76305;DHT22;65111;50.536;19.204;2023-03-23T15:58:35;17.60;51.90
76305;DHT22;65111;50.536;19.204;2023-03-23T16:01:24;17.50;52.00
76305;DHT22;65111;50.536;19.204;2023-03-23T16:03:54;17.50;52.10
76305;DHT22;65111;50.536;19.204;2023-03-23T16:06:25;17.40;52.10
76305;DHT22;65111;50.536;19.204;2023-03-23T16:08:53;17.40;52.00
76305;DHT22;65111;50.536;19.204;2023-03-23T16:11:19;17.30;52.50
76305;DHT22;65111;50.536;19.204;2023-03-23T16:13:45;17.20;52.60
76305;DHT22;65111;50.536;19.204;2023-03-23T16:16:20;17.10;52.90
76305;DHT22;65111;50.536;19.204;2023-03-23T16:18:47;17.10;53.00
76305;DHT22;65111;50.536;19.204;2023-03-23T16:21:13;16.90;53.50
76305;DHT22;65111;50.536;19.204;2023-03-23T16:23:39;16.80;53.60
76305;DHT22;65111;50.536;19.204;2023-03-23T16:26:09;16.80;53.80
76305;DHT22;65111;50.536;19.204;2023-03-23T16:28:35;16.70;53.90
76305;DHT22;65111;50.536;19.204;2023-03-23T16:31:01;16.50;54.20
76305;DHT22;65111;50.536;19.204;2023-03-23T16:33:27;16.50;54.30
76305;DHT22;65111;50.536;19.204;2023-03-23T16:35:53;16.40;54.40
76305;DHT22;65111;50.536;19.204;2023-03-23T16:38:19;16.30;54.60
76305;DHT22;65111;50.536;19.204;2023-03-23T16:40:46;16.20;54.90
76305;DHT22;65111;50.536;19.204;2023-03-23T16:43:12;16.10;55.10
76305;DHT22;65111;50.536;19.204;2023-03-23T16:45:41;16.10;55.50
76305;DHT22;65111;50.536;19.204;2023-03-23T16:48:08;16.10;55.80
76305;DHT22;65111;50.536;19.204;2023-03-23T16:50:36;16.00;55.70
76305;DHT22;65111;50.536;19.204;2023-03-23T16:53:03;15.90;55.90
76305;DHT22;65111;50.536;19.204;2023-03-23T16:55:30;15.80;55.90
76305;DHT22;65111;50.536;19.204;2023-03-23T16:57:56;15.70;56.10
76305;DHT22;65111;50.536;19.204;2023-03-23T17:00:23;15.60;56.50
76305;DHT22;65111;50.536;19.204;2023-03-23T17:02:51;15.50;56.60
76305;DHT22;65111;50.536;19.204;2023-03-23T17:05:19;15.50;56.70
76305;DHT22;65111;50.536;19.204;2023-03-23T17:07:46;15.40;56.90
76305;DHT22;65111;50.536;19.204;2023-03-23T17:10:13;15.40;57.50
76305;DHT22;65111;50.536;19.204;2023-03-23T17:12:39;15.30;57.80
76305;DHT22;65111;50.536;19.204;2023-03-23T17:15:07;15.20;57.90
76305;DHT22;65111;50.536;19.204;2023-03-23T17:17:34;15.10;58.10
76305;DHT22;65111;50.536;19.204;2023-03-23T17:20:00;15.10;58.10
76305;DHT22;65111;50.536;19.204;2023-03-23T17:22:27;14.90;58.50
76305;DHT22;65111;50.536;19.204;2023-03-23T17:24:53;14.90;58.70
76305;DHT22;65111;50.536;19.204;2023-03-23T17:27:22;14.90;58.60
76305;DHT22;65111;50.536;19.204;2023-03-23T17:29:49;14.90;58.70
76305;DHT22;65111;50.536;19.204;2023-03-23T17:32:16;14.90;58.80
76305;DHT22;65111;50.536;19.204;2023-03-23T17:34:43;14.80;58.90
76305;DHT22;65111;50.536;19.204;2023-03-23T17:37:10;14.80;59.00
76305;DHT22;65111;50.536;19.204;2023-03-23T17:39:36;14.80;59.30